Time;durP1;ratioP1;P1;durP2;ratioP2;P2;SDS_P1;SDS_P2;PMS_P1;PMS_P2;Temp;Humidity;BMP_temperature;BMP_pressure;BME280_temperature;BME280_humidity;BME280_pressure;Samples;Min_cycle;Max_cycle;Signal;HPM_P1;HPM_P2
2022/07/11 02:01:59;;;;;;;;;;;;;;;19.66;100.00;98391.63;4853531;29;19985;-70
2022/07/11 02:04:26;;;;;;;;;;;;;;;19.66;100.00;98408.66;4796152;29;20045;-70
2022/07/11 02:06:53;;;;;;;;;;;;;;;19.69;100.00;98406.94;4802424;29;20355;-70
2022/07/11 02:09:20;;;;;;;;;;;;;;;19.72;100.00;98405.25;4806426;29;19976;-70
2022/07/11 02:11:48;;;;;;;;;;;;;;;19.76;100.00;98409.56;4805562;29;20351;-70
2022/07/11 02:14:15;;;;;;;;;;;;;;;19.85;100.00;98403.19;4807140;29;19958;-70
2022/07/11 02:16:42;;;;;;;;;;;;;;;19.86;100.00;98404.75;4806205;29;19958;-69
2022/07/11 02:19:10;;;;;;;;;;;;;;;19.88;100.00;98403.06;4808070;29;19958;-70
2022/07/11 02:21:38;;;;;;;;;;;;;;;19.81;100.00;98396.81;4806112;29;19960;-70
2022/07/11 02:24:05;;;;;;;;;;;;;;;19.76;100.00;98395.38;4807933;29;19949;-70
2022/07/11 02:26:32;;;;;;;;;;;;;;;19.74;100.00;98402.75;4808382;29;19951;-70
2022/07/11 02:29:00;;;;;;;;;;;;;;;19.76;100.00;98394.59;4812034;29;19953;-70
2022/07/11 02:31:27;;;;;;;;;;;;;;;19.78;100.00;98397.75;4811701;29;19968;-70
2022/07/11 02:33:55;;;;;;;;;;;;;;;19.79;100.00;98399.31;4808665;29;19957;-70
2022/07/11 02:36:22;;;;;;;;;;;;;;;19.75;100.00;98399.47;4805914;29;19962;-70
2022/07/11 02:38:49;;;;;;;;;;;;;;;19.74;100.00;98403.53;4810610;29;19953;-70
2022/07/11 02:41:18;;;;;;;;;;;;;;;19.77;100.00;98399.78;4801155;29;19962;-70
2022/07/11 02:43:46;;;;;;;;;;;;;;;19.86;100.00;98405.56;4808008;29;19949;-70
2022/07/11 02:46:13;;;;;;;;;;;;;;;19.94;100.00;98406.91;4810392;29;20473;-70
2022/07/11 02:48:40;;;;;;;;;;;;;;;19.99;100.00;98403.50;4810086;29;20540;-70
2022/07/11 02:51:07;;;;;;;;;;;;;;;20.07;100.00;98406.88;4786796;29;19968;-70
2022/07/11 02:53:35;;;;;;;;;;;;;;;20.11;100.00;98411.19;4806330;29;19957;-70
2022/07/11 02:56:02;;;;;;;;;;;;;;;20.02;100.00;98402.59;4813109;29;20257;-70
2022/07/11 02:58:29;;;;;;;;;;;;;;;20.00;100.00;98405.06;4808861;29;19955;-70
2022/07/11 03:00:57;;;;;;;;;;;;;;;20.03;100.00;98409.84;4810995;29;19949;-70
2022/07/11 03:03:24;;;;;;;;;;;;;;;20.03;100.00;98409.03;4809757;29;19975;-70
2022/07/11 03:05:51;;;;;;;;;;;;;;;20.03;100.00;98411.88;4806809;29;19956;-70
2022/07/11 03:08:18;;;;;;;;;;;;;;;20.05;100.00;98413.00;4820651;29;20280;-70
2022/07/11 03:10:46;;;;;;;;;;;;;;;20.07;100.00;98419.03;4812119;29;19965;-70
2022/07/11 03:13:13;;;;;;;;;;;;;;;20.03;100.00;98409.84;4808381;29;19959;-70
2022/07/11 03:15:41;;;;;;;;;;;;;;;20.03;100.00;98411.88;4810212;29;19952;-70
2022/07/11 03:18:09;;;;;;;;;;;;;;;20.07;100.00;98410.53;4811719;29;19956;-70
2022/07/11 03:20:36;;;;;;;;;;;;;;;20.05;100.00;98417.91;4808147;29;19957;-70
2022/07/11 03:23:03;;;;;;;;;;;;;;;20.03;100.00;98414.72;4809065;29;19955;-70
2022/07/11 03:25:31;;;;;;;;;;;;;;;20.02;100.00;98413.13;4808564;29;19959;-70
2022/07/11 03:27:58;;;;;;;;;;;;;;;20.01;100.00;98417.22;4810315;29;20343;-70
2022/07/11 03:30:25;;;;;;;;;;;;;;;19.98;100.00;98412.44;4810289;29;19970;-70
2022/07/11 03:32:52;;;;;;;;;;;;;;;19.96;100.00;98412.91;4810076;29;19951;-70
2022/07/11 03:38:06;;;;;;;;;;;;;;;19.97;100.00;98416.56;4809207;29;19959;-70
2022/07/11 03:40:33;;;;;;;;;;;;;;;19.95;100.00;98417.03;4809572;29;19952;-70
2022/07/11 03:43:01;;;;;;;;;;;;;;;19.91;100.00;98415.53;4809047;29;19960;-70
2022/07/11 03:45:28;;;;;;;;;;;;;;;19.92;100.00;98412.25;4791812;29;20279;-70
2022/07/11 03:47:55;;;;;;;;;;;;;;;19.92;100.00;98417.13;4810688;29;19951;-70
2022/07/11 03:50:23;;;;;;;;;;;;;;;19.88;100.00;98420.09;4799406;29;19969;-70
2022/07/11 03:52:50;;;;;;;;;;;;;;;19.88;100.00;98422.91;4807744;29;19961;-69
2022/07/11 03:55:17;;;;;;;;;;;;;;;19.95;100.00;98417.03;4809237;29;19957;-69
2022/07/11 03:57:44;;;;;;;;;;;;;;;19.94;100.00;98423.94;4808904;29;19962;-70
2022/07/11 04:00:12;;;;;;;;;;;;;;;19.99;100.00;98433.91;4807804;29;19959;-69
2022/07/11 04:02:39;;;;;;;;;;;;;;;19.95;100.00;98425.53;4808073;29;19979;-70
2022/07/11 04:05:07;;;;;;;;;;;;;;;19.91;100.00;98436.19;4808768;29;20340;-70
2022/07/11 04:07:34;;;;;;;;;;;;;;;19.83;100.00;98432.00;4809520;29;20371;-70
2022/07/11 04:10:02;;;;;;;;;;;;;;;19.82;100.00;98433.28;4811238;29;19956;-70
2022/07/11 04:12:29;;;;;;;;;;;;;;;19.88;100.00;98439.94;4809575;29;19954;-70
2022/07/11 04:14:56;;;;;;;;;;;;;;;19.92;100.00;98446.31;4810544;29;19950;-70
2022/07/11 04:17:23;;;;;;;;;;;;;;;20.08;100.00;98451.84;4815982;29;19995;-70
2022/07/11 04:19:51;;;;;;;;;;;;;;;20.26;100.00;98451.25;4814990;29;19976;-70
2022/07/11 04:22:19;;;;;;;;;;;;;;;20.40;100.00;98447.91;4811798;29;19961;-70
2022/07/11 04:24:46;;;;;;;;;;;;;;;20.60;100.00;98453.28;4813325;29;20034;-70
2022/07/11 04:27:13;;;;;;;;;;;;;;;20.78;100.00;98456.28;4804116;29;19982;-70
2022/07/11 04:29:42;;;;;;;;;;;;;;;21.00;100.00;98462.75;4810295;29;19951;-70
2022/07/11 04:32:09;;;;;;;;;;;;;;;21.13;100.00;98462.69;4811579;29;19970;-70
2022/07/11 04:34:36;;;;;;;;;;;;;;;21.27;100.00;98462.94;4808800;29;19958;-70
2022/07/11 04:37:04;;;;;;;;;;;;;;;21.44;100.00;98463.50;4809036;29;19949;-70
2022/07/11 04:39:34;;;;;;;;;;;;;;;21.58;100.00;98460.88;4809440;29;19950;-70
2022/07/11 04:42:01;;;;;;;;;;;;;;;21.60;100.00;98464.03;4809446;29;19951;-70
2022/07/11 04:44:29;;;;;;;;;;;;;;;21.84;100.00;98463.47;4809067;29;19962;-70
2022/07/11 04:46:56;;;;;;;;;;;;;;;21.95;100.00;98470.38;4808578;29;19960;-70
2022/07/11 04:49:23;;;;;;;;;;;;;;;21.98;100.00;98474.34;4808977;29;20282;-70
2022/07/11 04:51:51;;;;;;;;;;;;;;;22.40;100.00;98466.78;4808835;29;19967;-70
2022/07/11 04:54:18;;;;;;;;;;;;;;;22.87;100.00;98461.47;4809606;29;19949;-70
2022/07/11 04:56:45;;;;;;;;;;;;;;;23.53;100.00;98473.88;4809368;29;20028;-70
2022/07/11 04:59:13;;;;;;;;;;;;;;;24.32;99.78;98468.75;4809377;29;19949;-70
2022/07/11 05:01:41;;;;;;;;;;;;;;;24.91;90.98;98481.19;4809344;29;19960;-70
2022/07/11 05:04:08;;;;;;;;;;;;;;;25.37;88.82;98482.31;4809243;29;20361;-70
2022/07/11 05:06:35;;;;;;;;;;;;;;;26.19;86.27;98489.94;4809203;29;19960;-70
2022/07/11 05:09:04;;;;;;;;;;;;;;;26.40;83.71;98487.91;4808557;29;19952;-70
2022/07/11 05:11:31;;;;;;;;;;;;;;;26.80;80.61;98495.75;4808541;29;19966;-70
2022/07/11 05:13:58;;;;;;;;;;;;;;;27.32;82.05;98497.38;4793149;29;19954;-70
2022/07/11 05:16:25;;;;;;;;;;;;;;;27.21;72.27;98498.06;4808647;29;20253;-71
2022/07/11 05:18:53;;;;;;;;;;;;;;;27.16;72.61;98504.53;4809403;29;19945;-70
2022/07/11 05:21:22;;;;;;;;;;;;;;;27.20;70.41;98496.47;4808673;29;20247;-70
2022/07/11 05:23:50;;;;;;;;;;;;;;;26.97;73.27;98502.50;4808610;29;20376;-70
2022/07/11 05:26:17;;;;;;;;;;;;;;;27.17;75.94;98499.56;4808323;29;19962;-70
2022/07/11 05:28:44;;;;;;;;;;;;;;;26.95;75.12;98502.22;4807871;29;20357;-70
2022/07/11 05:31:12;;;;;;;;;;;;;;;26.73;72.51;98497.72;4808381;29;19972;-71
2022/07/11 05:33:39;;;;;;;;;;;;;;;26.58;71.98;98502.75;4808904;29;20017;-71
2022/07/11 05:36:07;;;;;;;;;;;;;;;26.34;73.75;98499.28;4808554;29;19952;-70
2022/07/11 05:38:34;;;;;;;;;;;;;;;26.24;74.84;98502.78;4808468;29;20255;-70
2022/07/11 05:41:02;;;;;;;;;;;;;;;26.05;76.00;98514.47;4792698;29;19954;-70
2022/07/11 05:43:29;;;;;;;;;;;;;;;25.96;74.88;98505.19;4808504;29;19960;-70
2022/07/11 05:45:57;;;;;;;;;;;;;;;25.83;74.72;98513.31;4808495;29;19953;-70
2022/07/11 05:48:24;;;;;;;;;;;;;;;25.94;75.08;98513.50;4792390;29;19954;-70
2022/07/11 05:50:51;;;;;;;;;;;;;;;25.99;75.58;98521.41;4808211;29;19975;-70
2022/07/11 05:53:18;;;;;;;;;;;;;;;26.00;77.11;98522.97;4808171;29;19960;-70
2022/07/11 05:55:46;;;;;;;;;;;;;;;26.12;79.21;98521.88;4808259;29;19957;-70
2022/07/11 05:58:13;;;;;;;;;;;;;;;26.24;74.69;98517.13;4808109;29;19951;-70
2022/07/11 06:00:40;;;;;;;;;;;;;;;26.21;75.43;98521.78;4808573;29;19963;-70
2022/07/11 06:03:07;;;;;;;;;;;;;;;26.12;74.87;98521.88;4813863;29;20369;-70
2022/07/11 06:05:35;;;;;;;;;;;;;;;26.15;77.63;98529.50;4814089;29;19954;-70
2022/07/11 06:10:48;;;;;;;;;;;;;;;26.24;82.85;98523.63;4803752;29;19951;-70
2022/07/11 06:13:15;;;;;;;;;;;;;;;26.23;89.90;98529.88;4814222;29;19961;-70
2022/07/11 06:15:43;;;;;;;;;;;;;;;26.37;90.61;98526.97;4814407;29;19952;-70
2022/07/11 06:18:10;;;;;;;;;;;;;;;26.25;91.39;98522.34;4814563;29;19959;-70
2022/07/11 06:20:37;;;;;;;;;;;;;;;26.22;97.31;98522.56;4798198;29;20367;-70
2022/07/11 06:23:06;;;;;;;;;;;;;;;26.41;91.38;98533.28;4814049;29;19955;-70
2022/07/11 06:25:33;;;;;;;;;;;;;;;26.28;93.49;98532.84;4798575;29;20263;-70
2022/07/11 06:28:01;;;;;;;;;;;;;;;26.44;97.57;98531.47;4814024;29;19949;-70
2022/07/11 06:30:28;;;;;;;;;;;;;;;26.58;94.24;98527.78;4814107;29;19981;-70
2022/07/11 06:32:56;;;;;;;;;;;;;;;26.60;100.00;98537.47;4813488;29;19977;-70
2022/07/11 06:35:23;;;;;;;;;;;;;;;26.30;100.00;98541.72;4813992;29;19951;-70
2022/07/11 06:37:50;;;;;;;;;;;;;;;26.01;100.00;98539.69;4813492;29;19952;-70
2022/07/11 06:40:18;;;;;;;;;;;;;;;26.04;100.00;98538.66;4814373;29;19955;-70
2022/07/11 06:42:45;;;;;;;;;;;;;;;26.05;100.00;98548.84;4813743;29;19955;-70
2022/07/11 06:45:13;;;;;;;;;;;;;;;26.01;100.00;98551.16;4813942;29;19953;-70
2022/07/11 06:54:07;;;;;;;;;;;;;;;25.48;100.00;98541.84;4811484;29;19984;-70
2022/07/11 06:56:34;;;;;;;;;;;;;;;25.37;100.00;98547.38;4813411;29;19963;-70
2022/07/11 06:59:01;;;;;;;;;;;;;;;25.42;100.00;98550.34;4814463;29;19949;-70
2022/07/11 07:01:29;;;;;;;;;;;;;;;24.89;100.00;98555.25;4810828;29;19954;-70
2022/07/11 07:03:56;;;;;;;;;;;;;;;25.37;100.00;98553.88;4806704;29;19955;-70
2022/07/11 07:06:23;;;;;;;;;;;;;;;25.46;100.00;98563.72;4814324;29;19957;-70
2022/07/11 07:08:50;;;;;;;;;;;;;;;25.33;100.00;98566.81;4813731;29;19960;-70
2022/07/11 07:11:19;;;;;;;;;;;;;;;25.28;100.00;98562.56;4801176;29;19951;-70
2022/07/11 07:13:47;;;;;;;;;;;;;;;25.29;100.00;98546.94;4812031;29;19956;-70
2022/07/11 07:16:15;;;;;;;;;;;;;;;25.36;100.00;98548.63;4811040;29;19984;-70
2022/07/11 07:18:45;;;;;;;;;;;;;;;25.04;100.00;98556.06;4811070;29;19950;-70
2022/07/11 07:21:13;;;;;;;;;;;;;;;25.35;100.00;98553.59;4810873;29;19956;-70
2022/07/11 07:23:40;;;;;;;;;;;;;;;25.37;100.00;98561.69;4811055;29;20268;-70
2022/07/11 07:26:08;;;;;;;;;;;;;;;25.66;100.00;98564.59;4811437;29;19975;-70
2022/07/11 07:28:37;;;;;;;;;;;;;;;25.60;100.00;98565.78;4810578;29;19954;-70
2022/07/11 07:31:04;;;;;;;;;;;;;;;25.64;100.00;98569.22;4810876;29;19954;-70
2022/07/11 07:33:32;;;;;;;;;;;;;;;25.90;100.00;98567.34;4810858;29;19967;-70
2022/07/11 07:36:13;;;;;;;;;;;;;;;25.66;100.00;98564.59;4811230;29;19957;-70
2022/07/11 07:38:43;;;;;;;;;;;;;;;25.59;100.00;98572.78;4810707;29;19951;-70
2022/07/11 07:41:10;;;;;;;;;;;;;;;25.65;100.00;98560.13;4810712;29;20357;-70
2022/07/11 07:43:38;;;;;;;;;;;;;;;25.56;100.00;98568.84;4810932;29;19950;-70
2022/07/11 07:46:08;;;;;;;;;;;;;;;25.35;100.00;98565.03;4810481;29;19961;-70
2022/07/11 07:48:38;;;;;;;;;;;;;;;24.99;100.00;98571.06;4809842;29;19952;-70
2022/07/11 07:51:06;;;;;;;;;;;;;;;25.31;100.00;98575.06;4798756;29;19959;-70
2022/07/11 07:53:34;;;;;;;;;;;;;;;25.47;100.00;98574.66;4824877;29;19969;-70
2022/07/11 07:56:01;;;;;;;;;;;;;;;25.43;100.00;98566.22;4828301;29;19959;-70
2022/07/11 07:58:28;;;;;;;;;;;;;;;25.50;100.00;98576.53;4828683;29;19949;-70
2022/07/11 08:03:41;;;;;;;;;;;;;;;25.53;100.00;98566.19;4820451;29;19962;-70
2022/07/11 08:06:09;;;;;;;;;;;;;;;25.36;100.00;98562.94;4828237;29;19951;-70
2022/07/11 08:08:36;;;;;;;;;;;;;;;25.68;100.00;98559.16;4827886;29;19950;-70
2022/07/11 08:11:04;;;;;;;;;;;;;;;25.93;100.00;98560.63;4828314;29;19949;-70
2022/07/11 08:13:49;;;;;;;;;;;;;;;25.42;100.00;98561.78;4828296;29;19974;-70
2022/07/11 08:16:16;;;;;;;;;;;;;;;25.14;100.00;98563.31;4827657;29;19968;-70
2022/07/11 08:18:44;;;;;;;;;;;;;;;25.46;100.00;98560.84;4828091;29;19960;-70
2022/07/11 08:21:11;;;;;;;;;;;;;;;25.73;100.00;98558.47;4828907;29;20344;-70
2022/07/11 08:23:40;;;;;;;;;;;;;;;25.61;100.00;98562.41;4827725;29;19953;-70
2022/07/11 08:26:07;;;;;;;;;;;;;;;25.43;100.00;98563.34;4827655;29;19953;-70
2022/07/11 08:28:34;;;;;;;;;;;;;;;25.54;100.00;98562.00;4828162;29;20279;-70
2022/07/11 08:31:02;;;;;;;;;;;;;;;25.54;100.00;98568.53;4828449;29;20263;-70
2022/07/11 08:33:29;;;;;;;;;;;;;;;25.16;100.00;98565.69;4828127;29;20360;-70
2022/07/11 08:35:56;;;;;;;;;;;;;;;25.38;100.00;98561.19;4827589;29;19954;-70
2022/07/11 08:38:24;;;;;;;;;;;;;;;25.64;100.00;98560.63;4811132;29;20369;-70
2022/07/11 08:40:51;;;;;;;;;;;;;;;25.59;100.00;98564.19;4827633;29;19956;-70
2022/07/11 08:43:21;;;;;;;;;;;;;;;25.72;100.00;98562.63;4826987;29;19958;-70
2022/07/11 08:45:50;;;;;;;;;;;;;;;25.87;100.00;98571.22;4827840;29;19955;-70
2022/07/11 08:48:19;;;;;;;;;;;;;;;25.33;100.00;98567.59;4827540;29;19976;-70
2022/07/11 08:50:46;;;;;;;;;;;;;;;25.47;100.00;98557.47;4814922;29;19948;-70
2022/07/11 08:53:13;;;;;;;;;;;;;;;25.55;100.00;98552.16;4827561;29;19984;-70
2022/07/11 08:55:41;;;;;;;;;;;;;;;25.80;100.00;98563.03;4826948;29;19951;-70
2022/07/11 08:58:09;;;;;;;;;;;;;;;25.89;99.34;98560.06;4827445;29;19949;-70
2022/07/11 09:00:36;;;;;;;;;;;;;;;25.85;100.00;98557.38;4826365;29;20379;-70
2022/07/11 09:03:05;;;;;;;;;;;;;;;25.80;98.05;98557.31;4814514;29;20527;-70
2022/07/11 09:05:32;;;;;;;;;;;;;;;26.18;98.87;98562.09;4826863;29;19958;-70
2022/07/11 09:07:59;;;;;;;;;;;;;;;26.20;100.00;98548.06;4827230;29;19977;-70
2022/07/11 09:10:27;;;;;;;;;;;;;;;26.33;92.23;98552.19;4827775;29;20328;-70
2022/07/11 09:12:57;;;;;;;;;;;;;;;26.34;92.61;98550.91;4827117;29;20368;-70
2022/07/11 09:15:35;;;;;;;;;;;;;;;26.39;95.07;98560.88;4827180;29;19957;-70
2022/07/11 09:18:02;;;;;;;;;;;;;;;26.18;93.08;98562.91;4826895;29;19957;-70
2022/07/11 09:26:21;;;;;;;;;;;;;;;26.53;94.60;98552.22;4827554;29;20371;-70
2022/07/11 09:29:03;;;;;;;;;;;;;;;26.59;93.49;98558.03;4826775;29;19950;-70
2022/07/11 09:31:32;;;;;;;;;;;;;;;26.69;89.72;98557.41;4827335;29;19966;-70
2022/07/11 09:34:01;;;;;;;;;;;;;;;26.89;100.00;98555.88;4827377;29;19962;-70
2022/07/11 09:36:38;;;;;;;;;;;;;;;26.99;91.51;98552.34;4826630;29;19952;-70
2022/07/11 09:39:07;;;;;;;;;;;;;;;27.16;89.92;98559.09;4827288;29;19953;-70
2022/07/11 09:41:36;;;;;;;;;;;;;;;26.98;90.08;98550.78;4826943;29;19955;-70
2022/07/11 09:44:06;;;;;;;;;;;;;;;27.04;83.58;98565.19;4826739;29;20243;-70
2022/07/11 09:46:35;;;;;;;;;;;;;;;26.88;84.11;98565.75;4826856;29;20274;-70
2022/07/11 09:49:06;;;;;;;;;;;;;;;26.99;85.42;98560.19;4826157;29;19955;-70
2022/07/11 09:51:34;;;;;;;;;;;;;;;27.18;89.27;98564.31;4826663;29;20342;-70
2022/07/11 09:54:01;;;;;;;;;;;;;;;27.20;86.65;98555.97;4826226;29;20367;-70
2022/07/11 09:56:32;;;;;;;;;;;;;;;27.10;85.50;98566.03;4827106;29;19951;-70
2022/07/11 09:59:20;;;;;;;;;;;;;;;26.60;85.51;98562.50;4826343;29;19957;-70
2022/07/11 10:01:47;;;;;;;;;;;;;;;26.78;84.83;98555.72;4817339;29;19948;-70
2022/07/11 10:04:15;;;;;;;;;;;;;;;26.80;80.81;98558.88;4822079;29;20258;-70
2022/07/11 10:06:44;;;;;;;;;;;;;;;26.91;83.96;98554.06;4826423;29;19949;-70
2022/07/11 10:09:11;;;;;;;;;;;;;;;27.09;84.88;98553.00;4826401;29;19948;-70
2022/07/11 10:11:38;;;;;;;;;;;;;;;27.02;84.20;98559.19;4826773;29;20249;-70
2022/07/11 10:14:07;;;;;;;;;;;;;;;27.12;85.64;98567.13;4826296;29;19970;-70
2022/07/11 10:16:42;;;;;;;;;;;;;;;27.02;83.25;98570.66;4826184;29;19956;-70
2022/07/11 10:19:14;;;;;;;;;;;;;;;26.95;87.38;98563.25;4803249;29;19961;-70
2022/07/11 10:21:45;;;;;;;;;;;;;;;27.05;86.56;98561.00;4826340;29;19955;-70
2022/07/11 10:24:27;;;;;;;;;;;;;;;27.07;87.13;98573.56;4825744;29;19956;-70
2022/07/11 10:26:59;;;;;;;;;;;;;;;26.88;89.97;98565.75;4826362;29;19949;-70
2022/07/11 10:29:33;;;;;;;;;;;;;;;27.19;90.56;98560.16;4825938;29;19956;-70
2022/07/11 10:32:04;;;;;;;;;;;;;;;27.26;91.17;98566.25;4825747;29;19951;-70
2022/07/11 10:34:40;;;;;;;;;;;;;;;27.26;84.89;98569.13;4826481;29;20411;-70
2022/07/11 10:37:08;;;;;;;;;;;;;;;27.26;83.30;98560.53;4826292;29;19979;-70
2022/07/11 10:39:37;;;;;;;;;;;;;;;27.36;89.09;98561.91;4826629;29;19956;-70
2022/07/11 10:42:05;;;;;;;;;;;;;;;27.23;88.38;98560.72;4825553;29;19951;-71
2022/07/11 10:44:49;;;;;;;;;;;;;;;27.19;85.11;98555.19;4826143;29;19953;-70
2022/07/11 10:47:31;;;;;;;;;;;;;;;27.47;85.81;98554.75;4826171;29;19947;-70
2022/07/11 10:50:00;;;;;;;;;;;;;;;27.55;87.82;98550.94;4829557;29;19951;-70
2022/07/11 10:52:31;;;;;;;;;;;;;;;27.46;85.78;98553.97;4817419;29;19967;-70
2022/07/11 10:55:15;;;;;;;;;;;;;;;27.49;84.46;98552.16;4829289;29;19961;-70
2022/07/11 10:57:42;;;;;;;;;;;;;;;27.53;83.83;98552.72;4829542;29;19957;-70
2022/07/11 11:00:10;;;;;;;;;;;;;;;27.73;86.83;98546.94;4828683;29;19953;-70
2022/07/11 11:02:56;;;;;;;;;;;;;;;27.49;87.14;98550.06;4829333;29;20337;-70
2022/07/11 11:05:48;;;;;;;;;;;;;;;27.78;91.54;98555.59;4829791;29;19960;-70
2022/07/11 11:08:31;;;;;;;;;;;;;;;27.94;81.77;98546.34;4828895;29;19972;-70
2022/07/11 11:10:59;;;;;;;;;;;;;;;27.97;87.27;98548.16;4829061;29;19953;-70
2022/07/11 11:13:27;;;;;;;;;;;;;;;28.03;87.87;98548.25;4828635;29;20265;-70
2022/07/11 11:15:58;;;;;;;;;;;;;;;28.07;85.73;98542.28;4813595;29;19955;-70
2022/07/11 11:18:25;;;;;;;;;;;;;;;28.18;85.39;98543.16;4829110;29;19953;-70
2022/07/11 11:21:02;;;;;;;;;;;;;;;28.24;83.40;98543.19;4828611;29;19949;-70
2022/07/11 11:23:35;;;;;;;;;;;;;;;28.17;83.53;98532.16;4828773;29;20381;-70
2022/07/11 11:26:12;;;;;;;;;;;;;;;28.28;85.67;98541.66;4828317;29;20377;-70
2022/07/11 11:28:56;;;;;;;;;;;;;;;28.44;81.48;98540.22;4829367;29;19952;-70
2022/07/11 11:31:24;;;;;;;;;;;;;;;28.15;78.74;98537.63;4829080;29;19963;-70
2022/07/11 11:33:52;;;;;;;;;;;;;;;28.15;77.68;98529.00;4828720;29;19972;-70
2022/07/11 11:36:20;;;;;;;;;;;;;;;28.41;83.59;98536.25;4829156;29;19950;-70
2022/07/11 11:38:48;;;;;;;;;;;;;;;28.31;82.13;98532.00;4828193;29;19954;-70
2022/07/11 11:41:25;;;;;;;;;;;;;;;28.22;81.86;98537.19;4828402;29;19959;-70
2022/07/11 11:43:54;;;;;;;;;;;;;;;28.34;84.78;98530.19;4827896;29;19957;-70
2022/07/11 11:46:25;;;;;;;;;;;;;;;28.14;76.44;98528.22;4828726;29;19980;-69
2022/07/11 11:48:56;;;;;;;;;;;;;;;28.19;82.95;98532.44;4828672;29;19953;-70
2022/07/11 11:51:23;;;;;;;;;;;;;;;28.05;82.24;98533.38;4828706;29;19959;-70
2022/07/11 11:53:52;;;;;;;;;;;;;;;28.05;77.88;98525.53;4827907;29;19978;-70
2022/07/11 11:56:23;;;;;;;;;;;;;;;28.22;83.37;98509.19;4828407;29;19951;-70
2022/07/11 11:58:51;;;;;;;;;;;;;;;28.25;81.42;98527.50;4827480;29;19960;-71
2022/07/11 12:01:25;;;;;;;;;;;;;;;28.21;81.33;98521.22;4823428;29;19960;-71
2022/07/11 12:03:56;;;;;;;;;;;;;;;28.06;72.63;98524.25;4821247;29;20359;-71
2022/07/11 12:06:30;;;;;;;;;;;;;;;28.28;76.20;98520.72;4827761;29;20453;-71
2022/07/11 12:09:09;;;;;;;;;;;;;;;28.41;85.54;98510.38;4827985;29;20362;-71
2022/07/11 12:11:37;;;;;;;;;;;;;;;28.61;80.42;98503.72;4828579;29;19961;-70
2022/07/11 12:14:06;;;;;;;;;;;;;;;28.70;70.58;98500.63;4827561;29;19968;-70
2022/07/11 12:16:41;;;;;;;;;;;;;;;28.66;71.54;98502.16;4828508;29;19950;-70
2022/07/11 12:19:14;;;;;;;;;;;;;;;28.53;74.85;98502.59;4827966;29;19953;-70
2022/07/11 12:21:43;;;;;;;;;;;;;;;28.81;77.71;98503.53;4828200;29;19964;-70
2022/07/11 12:24:12;;;;;;;;;;;;;;;28.90;78.17;98497.56;4827445;29;19956;-70
2022/07/11 12:26:40;;;;;;;;;;;;;;;29.07;77.70;98495.53;4827818;29;19953;-70
2022/07/11 12:29:12;;;;;;;;;;;;;;;29.15;75.97;98495.78;4826622;29;20320;-70
2022/07/11 12:31:50;;;;;;;;;;;;;;;28.87;74.33;98495.72;4828152;29;19954;-70
2022/07/11 12:34:18;;;;;;;;;;;;;;;28.80;72.50;98496.22;4827257;29;19976;-71
2022/07/11 12:36:46;;;;;;;;;;;;;;;28.70;72.95;98491.19;4827703;29;19961;-71
2022/07/11 12:39:24;;;;;;;;;;;;;;;28.75;77.57;98487.56;4819766;29;19976;-71
2022/07/11 12:41:53;;;;;;;;;;;;;;;28.70;76.03;98499.81;4824899;29;19949;-70
2022/07/11 12:47:12;;;;;;;;;;;;;;;28.73;69.30;98495.91;4827226;29;19957;-70
2022/07/11 12:49:44;;;;;;;;;;;;;;;28.79;74.28;98491.75;4827096;29;20331;-70
2022/07/11 12:52:12;;;;;;;;;;;;;;;28.74;76.05;98483.88;4827436;29;19976;-70
2022/07/11 12:54:39;;;;;;;;;;;;;;;28.81;73.84;98480.50;4827443;29;19972;-70
2022/07/11 12:57:07;;;;;;;;;;;;;;;28.91;75.79;98484.72;4827653;29;19958;-70
2022/07/11 12:59:34;;;;;;;;;;;;;;;28.79;71.30;98485.19;4827200;29;19953;-70
2022/07/11 13:02:03;;;;;;;;;;;;;;;28.72;70.31;98477.84;4816887;29;19956;-70
2022/07/11 13:04:35;;;;;;;;;;;;;;;28.84;70.67;98476.59;4825553;29;19955;-70
2022/07/11 13:10:08;;;;;;;;;;;;;;;28.97;77.54;98464.59;4816393;29;19956;-70
2022/07/11 13:12:35;;;;;;;;;;;;;;;29.13;72.37;98463.84;4827246;29;19958;-70
2022/07/11 13:15:10;;;;;;;;;;;;;;;29.17;75.90;98470.16;4814611;29;19975;-71
2022/07/11 13:17:39;;;;;;;;;;;;;;;29.16;71.71;98468.56;4826922;29;19956;-71
2022/07/11 13:20:07;;;;;;;;;;;;;;;29.21;72.16;98465.75;4814141;29;19958;-71
2022/07/11 13:22:35;;;;;;;;;;;;;;;29.26;70.72;98464.97;4827690;29;19957;-71
2022/07/11 13:25:03;;;;;;;;;;;;;;;29.27;71.40;98469.41;4826694;29;19946;-71
2022/07/11 13:27:30;;;;;;;;;;;;;;;29.28;71.90;98464.44;4827666;29;19951;-71
2022/07/11 13:29:58;;;;;;;;;;;;;;;29.21;71.10;98477.28;4827059;29;19958;-71
2022/07/11 13:32:25;;;;;;;;;;;;;;;29.36;69.18;98459.75;4826822;29;19954;-71
2022/07/11 13:34:53;;;;;;;;;;;;;;;29.34;78.52;98452.94;4826406;29;20373;-71
2022/07/11 13:37:20;;;;;;;;;;;;;;;29.44;79.73;98454.25;4826695;29;19953;-70
2022/07/11 13:39:48;;;;;;;;;;;;;;;29.41;73.58;98455.28;4827018;29;19961;-70
2022/07/11 13:42:16;;;;;;;;;;;;;;;29.27;74.27;98449.25;4826358;29;19953;-70
2022/07/11 13:44:43;;;;;;;;;;;;;;;29.13;73.48;98446.56;4826378;29;20351;-71
2022/07/11 13:47:11;;;;;;;;;;;;;;;29.16;70.72;98442.66;4826669;29;19962;-71
2022/07/11 13:49:39;;;;;;;;;;;;;;;29.26;71.69;98449.78;4826394;29;19960;-70
2022/07/11 13:52:06;;;;;;;;;;;;;;;29.17;75.89;98442.13;4826688;29;19971;-71
2022/07/11 13:54:34;;;;;;;;;;;;;;;29.21;65.91;98450.56;4826362;29;19974;-71
2022/07/11 13:57:01;;;;;;;;;;;;;;;29.20;76.60;98452.63;4826986;29;19951;-71
2022/07/11 13:59:28;;;;;;;;;;;;;;;29.05;71.03;98452.03;4826323;29;19957;-70
2022/07/11 14:01:55;;;;;;;;;;;;;;;29.05;71.74;98451.28;4817558;29;19992;-70
2022/07/11 14:04:23;;;;;;;;;;;;;;;29.10;69.32;98448.41;4823553;29;19947;-71
2022/07/11 14:06:53;;;;;;;;;;;;;;;29.19;72.81;98450.28;4811306;29;19954;-71
2022/07/11 14:09:21;;;;;;;;;;;;;;;29.23;75.85;98451.59;4826069;29;19955;-71
2022/07/11 14:11:48;;;;;;;;;;;;;;;29.20;72.96;98446.88;4825815;29;19949;-70
2022/07/11 14:14:16;;;;;;;;;;;;;;;29.33;75.98;98451.34;4826187;29;19957;-70
2022/07/11 14:16:43;;;;;;;;;;;;;;;29.29;73.12;98455.25;4826339;29;20333;-70
2022/07/11 14:19:11;;;;;;;;;;;;;;;29.14;68.30;98451.81;4826729;29;20379;-70
2022/07/11 14:21:38;;;;;;;;;;;;;;;29.22;71.56;98450.03;4826065;29;19950;-70
2022/07/11 14:24:06;;;;;;;;;;;;;;;29.27;73.13;98451.38;4829648;29;19965;-71
2022/07/11 14:26:34;;;;;;;;;;;;;;;29.12;70.71;98442.94;4814023;29;19961;-71
2022/07/11 14:29:02;;;;;;;;;;;;;;;29.01;69.39;98444.97;4830148;29;19951;-71
2022/07/11 14:31:31;;;;;;;;;;;;;;;29.13;72.54;98444.47;4830236;29;20248;-70
2022/07/11 14:34:00;;;;;;;;;;;;;;;29.14;66.60;98437.44;4830187;29;20244;-70
2022/07/11 14:36:27;;;;;;;;;;;;;;;29.13;72.48;98432.97;4829495;29;20364;-70
2022/07/11 14:38:55;;;;;;;;;;;;;;;29.24;71.18;98430.16;4829725;29;19949;-70
2022/07/11 14:41:23;;;;;;;;;;;;;;;29.17;75.49;98427.72;4814040;29;20243;-70
2022/07/11 14:43:50;;;;;;;;;;;;;;;29.14;68.91;98430.88;4829137;29;19956;-70
2022/07/11 14:46:18;;;;;;;;;;;;;;;29.17;67.64;98426.97;4829965;29;19954;-70
2022/07/11 14:48:46;;;;;;;;;;;;;;;29.15;68.90;98432.44;4829703;29;19961;-70
2022/07/11 14:51:13;;;;;;;;;;;;;;;28.99;68.92;98439.75;4828758;29;19958;-70
2022/07/11 14:53:51;;;;;;;;;;;;;;;28.97;69.19;98438.69;4829159;29;19978;-70
2022/07/11 14:56:19;;;;;;;;;;;;;;;29.05;70.56;98442.66;4829339;29;19963;-70
2022/07/11 14:58:58;;;;;;;;;;;;;;;29.05;69.37;98434.78;4829338;29;19951;-70
2022/07/11 15:01:26;;;;;;;;;;;;;;;29.03;70.33;98434.50;4823627;29;20220;-71
2022/07/11 15:03:54;;;;;;;;;;;;;;;29.01;74.96;98427.69;4822013;29;19979;-71
2022/07/11 15:12:20;;;;;;;;;;;;;;;28.86;73.43;98430.00;4829068;29;20250;-71
2022/07/11 15:14:40;;;;;;;;;;;;;;;28.80;74.19;98447.28;4829034;29;20261;-70
2022/07/11 15:17:07;;;;;;;;;;;;;;;28.88;71.92;98451.22;4829180;29;20319;-70
2022/07/11 15:19:34;;;;;;;;;;;;;;;28.91;71.31;98453.06;4828678;29;19949;-70
2022/07/11 15:22:02;;;;;;;;;;;;;;;28.85;72.09;98452.28;4821698;29;19952;-71
2022/07/11 15:24:29;;;;;;;;;;;;;;;28.84;72.13;98459.31;4823461;29;19951;-71